createdAt,value
2022-11-29T00:03:21.667Z,100657.19
2022-11-29T00:08:26.637Z,100659.53
2022-11-29T00:13:30.185Z,100656.31
2022-11-29T00:18:33.781Z,100659.31
2022-11-29T00:23:38.699Z,100658.84
2022-11-29T00:28:42.141Z,100659.31
2022-11-29T00:33:45.884Z,100665.13
2022-11-29T00:38:50.744Z,100659.78
2022-11-29T00:43:54.509Z,100659.34
2022-11-29T00:48:57.979Z,100658.19
2022-11-29T00:54:02.934Z,100653.81
2022-11-29T00:59:06.398Z,100657.84
2022-11-29T01:04:09.881Z,100659.94
2022-11-29T01:09:14.831Z,100662.97
2022-11-29T01:14:18.550Z,100658.78
2022-11-29T01:19:21.972Z,100668.00
2022-11-29T01:24:26.870Z,100673.50
2022-11-29T01:29:30.348Z,100678.47
2022-11-29T01:34:33.756Z,100668.59
2022-11-29T01:39:38.972Z,100685.13
2022-11-29T01:45:02.505Z,100684.81
2022-11-29T01:50:07.665Z,100683.88
2022-11-29T01:55:12.828Z,100679.03
2022-11-29T02:00:18.777Z,100683.56
2022-11-29T02:05:23.424Z,100684.59
2022-11-29T02:10:35.714Z,100687.63
2022-11-29T02:15:44.363Z,100688.97
2022-11-29T02:21:17.623Z,100676.88
2022-11-29T02:26:50.172Z,100682.59
2022-11-29T02:32:03.164Z,100685.69
2022-11-29T02:37:22.529Z,100686.66
2022-11-29T02:42:58.540Z,100695.13
2022-11-29T02:48:15.671Z,100687.53
2022-11-29T02:53:27.641Z,100700.88
2022-11-29T02:58:36.208Z,100695.97
2022-11-29T03:03:43.766Z,100707.09
2022-11-29T03:08:54.890Z,100711.16
2022-11-29T03:14:07.616Z,100712.13
2022-11-29T03:19:24.487Z,100704.72
2022-11-29T03:24:33.049Z,100712.34
2022-11-29T03:29:40.311Z,100718.50
2022-11-29T03:34:57.433Z,100725.88
2022-11-29T03:40:06.399Z,100730.88
2022-11-29T03:45:16.323Z,100734.91
2022-11-29T03:50:23.254Z,100740.41
2022-11-29T03:55:45.117Z,100744.97
2022-11-29T04:01:06.893Z,100748.66
2022-11-29T04:06:31.601Z,100748.78
2022-11-29T04:11:59.177Z,100748.97
2022-11-29T04:17:30.256Z,100762.81
2022-11-29T04:22:49.856Z,100754.25
2022-11-29T04:28:07.517Z,100764.19
2022-11-29T04:33:45.613Z,100765.66
2022-11-29T04:39:13.987Z,100778.59
2022-11-29T04:44:28.704Z,100785.50
2022-11-29T04:50:04.786Z,100790.22
2022-11-29T04:55:23.773Z,100787.78
2022-11-29T05:00:38.252Z,100788.97
2022-11-29T05:05:45.167Z,100801.66
2022-11-29T05:11:00.317Z,100806.28
2022-11-29T05:16:16.994Z,100811.13
2022-11-29T05:21:28.600Z,100810.31
2022-11-29T05:26:36.666Z,100807.84
2022-11-29T05:31:55.532Z,100821.25
2022-11-29T05:37:04.007Z,100831.47
2022-11-29T05:42:21.099Z,100834.00
2022-11-29T05:47:32.821Z,100842.09
2022-11-29T05:52:44.982Z,100848.53
2022-11-29T05:57:54.203Z,100856.47
2022-11-29T06:03:03.517Z,100859.84
2022-11-29T06:08:12.245Z,100864.31
2022-11-29T06:13:22.097Z,100872.75
2022-11-29T06:18:46.301Z,100869.59
2022-11-29T06:24:02.272Z,100879.25
2022-11-29T06:29:22.117Z,100875.53
2022-11-29T06:34:33.510Z,100877.94
2022-11-29T06:39:37.614Z,100879.31
2022-11-29T06:44:42.699Z,100883.44
2022-11-29T06:49:49.821Z,100880.19
2022-11-29T06:55:05.141Z,100877.63
2022-11-29T07:00:16.197Z,100891.09
2022-11-29T07:05:25.362Z,100897.47
2022-11-29T07:10:30.492Z,100908.34
2022-11-29T07:15:34.581Z,100913.22
2022-11-29T07:20:43.253Z,100916.19
2022-11-29T07:25:54.917Z,100914.91
2022-11-29T07:31:03.911Z,100919.59
2022-11-29T07:36:14.455Z,100925.94
2022-11-29T07:41:22.073Z,100932.22
2022-11-29T07:46:25.939Z,100935.78
2022-11-29T07:51:32.371Z,100931.91
2022-11-29T07:56:35.785Z,100943.94
2022-11-29T08:01:39.321Z,100944.41
2022-11-29T08:06:44.364Z,100953.63
2022-11-29T08:11:48.814Z,100959.75
2022-11-29T08:16:52.254Z,100980.59
2022-11-29T08:21:57.192Z,100971.19
2022-11-29T08:27:00.805Z,100968.78
2022-11-29T08:32:04.513Z,100972.56
2022-11-29T08:37:09.546Z,100976.16
2022-11-29T08:42:13.164Z,100970.47
2022-11-29T08:47:34.292Z,100981.25
2022-11-29T08:52:58.005Z,100982.84
2022-11-29T08:58:03.891Z,100993.97
2022-11-29T09:03:26.704Z,100995.25
2022-11-29T09:08:31.780Z,100993.56
2022-11-29T09:13:35.241Z,100996.44
2022-11-29T09:18:40.315Z,101004.63
2022-11-29T09:23:46.288Z,101006.44
2022-11-29T09:28:49.914Z,101017.22
2022-11-29T09:33:53.831Z,101009.91
2022-11-29T09:38:59.252Z,101013.13
2022-11-29T09:44:08.242Z,101022.84
2022-11-29T09:49:47.111Z,101035.97
2022-11-29T09:54:56.806Z,101043.41
2022-11-29T10:00:03.353Z,101039.06
2022-11-29T10:05:13.620Z,101039.63
2022-11-29T10:10:22.053Z,101033.66
2022-11-29T10:15:28.548Z,101033.34
2022-11-29T10:20:39.162Z,101034.72
2022-11-29T10:25:49.286Z,101031.50
2022-11-29T10:30:55.301Z,101029.91
2022-11-29T10:36:00.942Z,101035.81
2022-11-29T10:41:09.122Z,101036.53
2022-11-29T10:46:16.223Z,101048.91
2022-11-29T10:51:19.893Z,101040.41
2022-11-29T10:56:29.364Z,101046.19
2022-11-29T11:01:34.036Z,101036.22
2022-11-29T11:06:45.685Z,101041.13
2022-11-29T11:11:53.890Z,101031.41
2022-11-29T11:16:57.612Z,101037.91
2022-11-29T11:22:05.051Z,101040.03
2022-11-29T11:27:09.990Z,101040.03
2022-11-29T11:32:18.639Z,101041.88
2022-11-29T11:37:25.129Z,101045.34
2022-11-29T11:42:39.362Z,101044.59
2022-11-29T11:47:45.070Z,101045.59
2022-11-29T11:52:53.230Z,101054.56
2022-11-29T11:58:09.289Z,101058.81
2022-11-29T12:03:26.092Z,101053.72
2022-11-29T12:08:30.647Z,101057.19
2022-11-29T12:13:38.492Z,101057.81
2022-11-29T12:18:45.547Z,101066.22
2022-11-29T12:23:54.760Z,101067.41
2022-11-29T12:28:59.873Z,101071.78
2022-11-29T12:34:09.250Z,101080.84
2022-11-29T12:39:25.414Z,101087.63
2022-11-29T12:44:41.171Z,101080.31
2022-11-29T12:49:49.768Z,101093.88
2022-11-29T12:55:01.177Z,101093.88
2022-11-29T13:00:12.517Z,101101.31
2022-11-29T13:05:21.901Z,101097.38
2022-11-29T13:10:31.814Z,101100.00
2022-11-29T13:15:40.649Z,101106.19
2022-11-29T13:20:49.473Z,101105.56
2022-11-29T13:25:55.477Z,101109.59
2022-11-29T13:31:03.786Z,101109.59
2022-11-29T13:36:13.784Z,101112.88
2022-11-29T13:41:24.126Z,101106.63
2022-11-29T13:46:35.639Z,101125.09
2022-11-29T13:51:40.526Z,101117.84
2022-11-29T13:56:46.678Z,101128.38
2022-11-29T14:01:53.836Z,101140.28
2022-11-29T14:07:11.016Z,101139.25
2022-11-29T14:12:35.819Z,101140.00
2022-11-29T14:17:50.964Z,101151.66
2022-11-29T14:23:17.129Z,101147.53
2022-11-29T14:28:33.250Z,101147.97
2022-11-29T14:33:49.957Z,101159.84
2022-11-29T14:39:00.115Z,101154.50
2022-11-29T14:44:08.148Z,101163.56
2022-11-29T14:49:22.887Z,101165.50
2022-11-29T14:54:26.843Z,101167.03
2022-11-29T14:59:48.451Z,101161.19
2022-11-29T15:04:54.760Z,101167.44
2022-11-29T15:10:01.181Z,101178.66
2022-11-29T15:15:12.629Z,101167.03
2022-11-29T15:20:43.899Z,101168.66
2022-11-29T15:25:48.361Z,101163.94
2022-11-29T15:31:01.988Z,101173.41
2022-11-29T15:36:08.712Z,101187.66
2022-11-29T15:41:20.569Z,101183.13
2022-11-29T15:46:26.855Z,101189.66
2022-11-29T15:51:32.746Z,101186.00
2022-11-29T15:56:38.923Z,101182.88
2022-11-29T16:01:44.277Z,101191.09
2022-11-29T16:06:51.840Z,101189.16
2022-11-29T16:11:55.355Z,101189.31
2022-11-29T16:17:00.819Z,101203.78
2022-11-29T16:22:18.532Z,101198.06
2022-11-29T16:27:22.839Z,101207.16
2022-11-29T16:32:29.228Z,101211.81
2022-11-29T16:37:39.828Z,101209.38
2022-11-29T16:42:44.518Z,101225.81
2022-11-29T16:47:52.465Z,101224.06
2022-11-29T16:52:59.520Z,101229.75
2022-11-29T16:58:05.204Z,101231.63
2022-11-29T17:03:10.365Z,101239.66
2022-11-29T17:08:15.297Z,101237.22
2022-11-29T17:13:19.209Z,101240.44
2022-11-29T17:18:22.738Z,101240.81
2022-11-29T17:23:27.677Z,101259.53
2022-11-29T17:28:31.117Z,101264.53
2022-11-29T17:33:34.546Z,101261.59
2022-11-29T17:38:39.664Z,101271.09
2022-11-29T17:43:43.065Z,101272.78
2022-11-29T17:48:46.611Z,101272.00
2022-11-29T17:53:51.968Z,101270.03
2022-11-29T17:58:56.565Z,101285.34
2022-11-29T18:04:01.959Z,101281.34
2022-11-29T18:09:08.300Z,101278.50
2022-11-29T18:14:12.745Z,101282.41
2022-11-29T18:19:18.212Z,101285.72
2022-11-29T18:24:23.053Z,101296.69
2022-11-29T18:29:26.511Z,101290.94
2022-11-29T18:34:29.881Z,101294.69
2022-11-29T18:39:34.659Z,101292.91
2022-11-29T18:44:38.009Z,101291.69
2022-11-29T18:49:41.480Z,101298.38
2022-11-29T18:54:46.651Z,101289.50
2022-11-29T18:59:50.305Z,101294.91
2022-11-29T19:04:53.899Z,101305.78
2022-11-29T19:09:58.875Z,101305.59
2022-11-29T19:15:03.902Z,101305.78
2022-11-29T19:20:09.067Z,101302.16
2022-11-29T19:25:14.172Z,101304.63
2022-11-29T19:30:18.229Z,101306.88
2022-11-29T19:35:21.862Z,101309.75
2022-11-29T19:40:26.817Z,101301.13
2022-11-29T19:45:30.484Z,101301.03
2022-11-29T19:50:34.187Z,101300.94
2022-11-29T19:55:44.121Z,101310.56
2022-11-29T20:00:48.032Z,101314.28
2022-11-29T20:05:55.556Z,101318.22
2022-11-29T20:11:07.463Z,101324.56
2022-11-29T20:16:12.742Z,101319.56
2022-11-29T20:21:18.981Z,101321.84
2022-11-29T20:26:24.311Z,101329.22
2022-11-29T20:31:31.112Z,101330.69
2022-11-29T20:36:44.468Z,101334.66
2022-11-29T20:42:12.689Z,101332.59
2022-11-29T20:47:18.527Z,101327.59
2022-11-29T20:52:33.189Z,101330.97
2022-11-29T20:57:39.117Z,101335.59
2022-11-29T21:02:42.871Z,101345.81
2022-11-29T21:07:46.735Z,101348.44
2022-11-29T21:12:52.333Z,101345.78
2022-11-29T21:17:56.414Z,101343.50
2022-11-29T21:23:03.000Z,101332.56
2022-11-29T21:28:10.984Z,101338.22
2022-11-29T21:33:14.825Z,101339.22
2022-11-29T21:38:21.418Z,101340.09
2022-11-29T21:43:58.143Z,101336.41
2022-11-29T21:48:51.438Z,101352.47
2022-11-29T21:53:55.454Z,101352.56
2022-11-29T21:59:00.315Z,101353.31
2022-11-29T22:04:04.404Z,101351.31
2022-11-29T22:09:08.581Z,101358.03
2022-11-29T22:14:15.696Z,101358.38
2022-11-29T22:19:20.827Z,101371.41
2022-11-29T22:24:26.721Z,101358.31
2022-11-29T22:29:31.889Z,101369.19
2022-11-29T22:34:35.441Z,101361.25
2022-11-29T22:39:38.884Z,101368.22
2022-11-29T22:44:45.635Z,101362.91
2022-11-29T22:49:49.524Z,101369.31
2022-11-29T22:54:52.967Z,101371.00
2022-11-29T22:59:57.893Z,101378.94
2022-11-29T23:05:01.608Z,101367.25
2022-11-29T23:10:05.640Z,101372.69
2022-11-29T23:15:11.617Z,101371.00
2022-11-29T23:20:15.416Z,101379.28
2022-11-29T23:25:19.099Z,101383.44
2022-11-29T23:30:24.016Z,101381.72
2022-11-29T23:35:27.872Z,101382.59
2022-11-29T23:40:31.354Z,101369.44
2022-11-29T23:45:39.104Z,101363.81
2022-11-29T23:50:43.609Z,101361.63
2022-11-29T23:55:47.816Z,101374.16
